Hauptseite
METAR-TAF:

METAR-TAF

Flughäfen :

Tunis, Tunesien

Flughafen Tunis

Breite: 36-50N, Länge: 010-14E, Höhe: 3 m

Beobachtung

Neuester Wetterbericht von vor 24 Minuten, um 23:30 UTC
Wind 8 kt aus West, variierte zwischen Südwest und Nordwest
Temperatur 13°C
Luftfeuchtigkeit 58%
Luftdruck 1023 hPa
Sichtweite 10 km oder mehr
Leicht bewölkt in der Höhe von 1600 ft

METAR: DTTA 172330Z 28008KT 230V320 9999 FEW016 13/05 Q1023 NOSIG

Zeit: 00:54 (23:54 UTC)

Prognose

Neuester Wetterbericht von vor 54 Minuten, um 23:00 UTC
Gültige Prognose vom 18 um 00 UTC bis 18 um 24 UTC
Wind 15 kt aus Nordwest
Sichtweite 10 km oder mehr
Aufgelockert bewölkt in der Höhe von 1600 ft
Übergehend zu
vom 18 um 17 UTC bis 18 um 19 UTC
Wind 10 kt aus Süd/Südost

TAF: DTTA 172300Z 1800/1824 32015KT 9999 SCT016 BECMG 1817/1819 15010KT

Wetterbeobachtungen und Prognosen von mehr als 4000 Flughäfen (METAR und TAF Bericht).

Die verfügbaren Stationen werden durch gelbe und rote Markierungen auf der Karte dargestellt.

Führen Sie die Maus auf sie, um den Namen der Station zu sehen.

Darauf klicken, um die Beobachtung von Wetterbeobachtungen und Prognosen zu sehen.

Um die Karte zu ändern : klicken Sie auf den grünen Tasten mit einem schwarzen Kreuz Zum Vergrößern, auf den grünen Button mit einem Gedankenstrich zu verkleinern, oder auf die grünen Pfeile für benachbarte Karten.


METAR-TAF: